createdAt,value
2022-11-11T00:02:27.855Z,87.74
2022-11-11T00:05:13.476Z,88.12
2022-11-11T00:08:02.254Z,88.16
2022-11-11T00:10:47.631Z,86.30
2022-11-11T00:13:34.231Z,86.33
2022-11-11T00:16:20.800Z,87.92
2022-11-11T00:19:24.990Z,88.09
2022-11-11T00:22:38.603Z,86.61
2022-11-11T00:25:24.057Z,85.05
2022-11-11T00:28:09.856Z,85.27
2022-11-11T00:31:02.618Z,86.64
2022-11-11T00:33:48.542Z,87.63
2022-11-11T00:36:34.307Z,86.25
2022-11-11T00:39:20.218Z,85.09
2022-11-11T00:42:05.895Z,85.60
2022-11-11T00:44:51.479Z,85.65
2022-11-11T00:47:56.120Z,86.29
2022-11-11T00:51:00.439Z,84.83
2022-11-11T00:53:46.329Z,83.50
2022-11-11T00:56:32.378Z,83.67
2022-11-11T00:59:18.283Z,84.98
2022-11-11T01:02:04.043Z,86.33
2022-11-11T01:04:50.158Z,85.51
2022-11-11T01:07:36.017Z,83.94
2022-11-11T01:10:42.388Z,84.14
2022-11-11T01:13:32.649Z,85.36
2022-11-11T01:16:21.458Z,86.48
2022-11-11T01:19:07.116Z,85.81
2022-11-11T01:21:52.826Z,84.57
2022-11-11T01:24:39.106Z,84.94
2022-11-11T01:27:24.799Z,86.45
2022-11-11T01:30:14.286Z,87.78
2022-11-11T01:33:00.797Z,85.72
2022-11-11T01:35:46.567Z,84.44
2022-11-11T01:38:32.468Z,85.48
2022-11-11T01:41:36.876Z,86.22
2022-11-11T01:44:55.614Z,87.25
2022-11-11T01:48:22.954Z,85.82
2022-11-11T01:51:06.334Z,85.99
2022-11-11T01:53:56.147Z,87.63
2022-11-11T01:56:42.790Z,88.87
2022-11-11T01:59:29.116Z,87.06
2022-11-11T02:02:23.861Z,85.83
2022-11-11T02:05:31.409Z,86.50
2022-11-11T02:08:32.729Z,87.52
2022-11-11T02:11:39.109Z,87.54
2022-11-11T02:14:37.270Z,85.77
2022-11-11T02:17:23.965Z,86.88
2022-11-11T02:20:10.627Z,87.85
2022-11-11T02:23:23.492Z,87.95
2022-11-11T02:26:09.768Z,85.94
2022-11-11T02:28:55.706Z,86.57
2022-11-11T02:31:41.514Z,87.78
2022-11-11T02:34:31.775Z,88.65
2022-11-11T02:37:21.061Z,87.00
2022-11-11T02:40:09.197Z,86.07
2022-11-11T02:42:54.889Z,86.26
2022-11-11T02:45:40.413Z,87.30
2022-11-11T02:48:26.211Z,87.61
2022-11-11T02:51:12.080Z,85.88
2022-11-11T02:53:59.230Z,85.50
2022-11-11T02:57:04.024Z,86.64
2022-11-11T02:59:49.747Z,87.62
2022-11-11T03:02:36.022Z,85.99
2022-11-11T03:05:21.661Z,85.63
2022-11-11T03:08:07.630Z,85.94
2022-11-11T03:10:53.606Z,86.49
2022-11-11T03:13:39.390Z,88.10
2022-11-11T03:16:44.053Z,86.29
2022-11-11T03:19:30.195Z,85.60
2022-11-11T03:25:40.394Z,88.04
2022-11-11T03:28:26.264Z,87.03
2022-11-11T03:31:11.941Z,85.18
2022-11-11T03:34:17.572Z,85.50
2022-11-11T03:37:25.988Z,86.73
2022-11-11T03:40:12.487Z,87.47
2022-11-11T03:43:03.908Z,86.25
2022-11-11T03:45:51.633Z,85.10
2022-11-11T03:48:37.432Z,86.85
2022-11-11T03:51:22.910Z,87.93
2022-11-11T03:54:08.398Z,87.98
2022-11-11T03:57:14.245Z,85.94
2022-11-11T03:59:59.943Z,86.00
2022-11-11T04:03:04.559Z,87.01
2022-11-11T04:06:09.154Z,87.74
2022-11-11T04:09:13.546Z,85.85
2022-11-11T04:11:59.215Z,85.14
2022-11-11T04:15:03.617Z,85.57
2022-11-11T04:17:49.316Z,87.54
2022-11-11T04:20:53.825Z,87.45
2022-11-11T04:23:39.647Z,85.35
2022-11-11T04:26:25.320Z,85.83
2022-11-11T04:29:29.603Z,86.71
2022-11-11T04:32:35.370Z,87.35
2022-11-11T04:35:21.050Z,85.92
2022-11-11T04:38:27.023Z,84.88
2022-11-11T04:41:13.309Z,85.98
2022-11-11T04:44:17.533Z,87.09
2022-11-11T04:47:03.147Z,86.93
2022-11-11T04:49:48.696Z,85.57
2022-11-11T04:52:34.321Z,85.84
2022-11-11T04:55:38.797Z,87.43
2022-11-11T04:58:25.796Z,87.98
2022-11-11T05:01:11.152Z,85.90
2022-11-11T05:03:57.082Z,85.06
2022-11-11T05:07:01.672Z,86.27
2022-11-11T05:09:47.097Z,87.65
2022-11-11T05:12:32.684Z,86.47
2022-11-11T05:15:37.302Z,84.22
2022-11-11T05:18:41.715Z,84.15
2022-11-11T05:21:28.686Z,85.00
2022-11-11T05:24:33.163Z,86.52
2022-11-11T05:27:19.076Z,85.16
2022-11-11T05:30:05.826Z,84.14
2022-11-11T05:32:51.340Z,84.36
2022-11-11T05:35:37.042Z,85.69
2022-11-11T05:38:22.817Z,87.96
2022-11-11T05:41:08.752Z,85.94
2022-11-11T05:43:54.614Z,84.39
2022-11-11T05:46:40.122Z,84.69
2022-11-11T05:49:26.158Z,85.40
2022-11-11T05:52:12.661Z,86.34
2022-11-11T05:54:58.552Z,85.47
2022-11-11T05:57:44.870Z,84.37
2022-11-11T06:00:30.773Z,84.63
2022-11-11T06:03:16.727Z,85.12
2022-11-11T06:06:02.521Z,86.96
2022-11-11T06:08:48.199Z,85.55
2022-11-11T06:11:33.993Z,84.96
2022-11-11T06:14:19.591Z,85.05
2022-11-11T06:17:05.208Z,86.01
2022-11-11T06:19:50.834Z,87.00
2022-11-11T06:22:55.361Z,84.89
2022-11-11T06:25:59.990Z,83.84
2022-11-11T06:28:53.403Z,85.16
2022-11-11T06:31:39.242Z,85.76
2022-11-11T06:34:24.822Z,86.75
2022-11-11T06:37:10.607Z,85.99
2022-11-11T06:39:56.145Z,84.43
2022-11-11T06:42:41.723Z,84.94
2022-11-11T06:45:29.091Z,86.68
2022-11-11T06:48:14.807Z,87.00
2022-11-11T06:51:05.339Z,85.79
2022-11-11T06:53:51.693Z,84.42
2022-11-11T06:56:37.320Z,84.96
2022-11-11T06:59:23.146Z,86.38
2022-11-11T07:02:14.983Z,87.06
2022-11-11T07:05:00.893Z,85.31
2022-11-11T07:07:46.466Z,84.34
2022-11-11T07:10:32.781Z,84.42
2022-11-11T07:13:18.844Z,85.62
2022-11-11T07:16:04.629Z,85.86
2022-11-11T07:18:50.517Z,84.41
2022-11-11T07:21:36.204Z,83.97
2022-11-11T07:24:21.904Z,84.49
2022-11-11T07:27:07.572Z,84.96
2022-11-11T07:29:53.272Z,85.18
2022-11-11T07:32:46.363Z,84.42
2022-11-11T07:35:32.134Z,84.32
2022-11-11T07:38:17.919Z,84.99
2022-11-11T07:41:03.614Z,85.35
2022-11-11T07:43:49.160Z,86.00
2022-11-11T07:46:34.728Z,83.84
2022-11-11T07:49:20.409Z,83.35
2022-11-11T07:52:06.097Z,83.43
2022-11-11T07:54:51.678Z,83.61
2022-11-11T07:57:37.335Z,84.45
2022-11-11T08:00:23.458Z,83.42
2022-11-11T08:03:09.659Z,82.63
2022-11-11T08:05:56.569Z,83.50
2022-11-11T08:08:41.982Z,84.49
2022-11-11T08:11:46.671Z,83.99
2022-11-11T08:14:32.572Z,82.81
2022-11-11T08:17:18.147Z,82.92
2022-11-11T08:20:04.249Z,83.82
2022-11-11T08:23:16.973Z,84.04
2022-11-11T08:26:06.268Z,82.32
2022-11-11T08:28:52.726Z,81.82
2022-11-11T08:31:39.447Z,81.69
2022-11-11T08:34:25.294Z,82.94
2022-11-11T08:37:10.962Z,83.05
2022-11-11T08:39:57.513Z,80.58
2022-11-11T08:42:43.144Z,80.65
2022-11-11T08:45:29.300Z,80.71
2022-11-11T08:48:14.788Z,80.92
2022-11-11T08:51:00.463Z,81.07
2022-11-11T08:53:46.137Z,80.27
2022-11-11T08:56:31.931Z,78.35
2022-11-11T08:59:17.605Z,78.35
2022-11-11T09:02:03.190Z,78.64
2022-11-11T09:04:53.025Z,79.09
2022-11-11T09:07:41.522Z,78.41
2022-11-11T09:10:27.131Z,77.47
2022-11-11T09:13:12.731Z,77.26
2022-11-11T09:15:59.911Z,75.21
2022-11-11T09:18:46.715Z,75.11
2022-11-11T09:21:32.605Z,74.20
2022-11-11T09:24:18.401Z,75.58
2022-11-11T09:27:04.081Z,76.24
2022-11-11T09:29:49.525Z,76.82
2022-11-11T09:32:35.580Z,74.91
2022-11-11T09:35:21.595Z,73.29
2022-11-11T09:38:07.062Z,73.24
2022-11-11T09:41:12.795Z,73.27
2022-11-11T09:44:00.505Z,71.79
2022-11-11T09:46:55.199Z,71.46
2022-11-11T09:49:44.114Z,71.88
2022-11-11T09:52:39.266Z,71.25
2022-11-11T09:55:32.196Z,70.95
2022-11-11T09:58:21.335Z,70.74
2022-11-11T10:01:11.294Z,70.15
2022-11-11T10:04:05.303Z,69.81
2022-11-11T10:06:52.454Z,67.85
2022-11-11T10:09:48.016Z,67.90
2022-11-11T10:12:43.532Z,66.11
2022-11-11T10:15:47.303Z,66.35
2022-11-11T10:18:48.552Z,64.69
2022-11-11T10:22:11.876Z,63.25
2022-11-11T10:25:17.063Z,62.81
2022-11-11T10:28:02.643Z,63.69
2022-11-11T10:30:49.048Z,62.70
2022-11-11T10:33:57.691Z,62.44
2022-11-11T10:36:54.589Z,61.34
2022-11-11T10:40:11.435Z,60.49
2022-11-11T10:42:57.322Z,60.40
2022-11-11T10:45:50.335Z,61.23
2022-11-11T10:48:47.597Z,62.91
2022-11-11T10:51:37.500Z,64.09
2022-11-11T10:54:26.848Z,64.16
2022-11-11T10:57:22.912Z,66.20
2022-11-11T11:00:10.497Z,66.46
2022-11-11T11:03:02.479Z,68.03
2022-11-11T11:06:04.051Z,68.86
2022-11-11T11:08:54.760Z,70.22
2022-11-11T11:11:43.198Z,70.22
2022-11-11T11:14:37.826Z,69.61
2022-11-11T11:17:30.703Z,69.27
2022-11-11T11:20:20.200Z,70.06
2022-11-11T11:23:05.576Z,67.99
2022-11-11T11:25:57.009Z,65.14
2022-11-11T11:28:59.583Z,64.18
2022-11-11T11:31:47.688Z,65.38
2022-11-11T11:34:46.721Z,67.50
2022-11-11T11:37:32.193Z,68.56
2022-11-11T11:40:17.700Z,67.25
2022-11-11T11:43:03.441Z,68.76
2022-11-11T11:45:55.520Z,68.04
2022-11-11T11:48:44.335Z,66.64
2022-11-11T11:51:36.193Z,67.25
2022-11-11T11:54:35.940Z,67.76
2022-11-11T11:57:33.447Z,69.38
2022-11-11T12:00:21.024Z,69.00
2022-11-11T12:03:17.389Z,69.34
2022-11-11T12:06:17.636Z,70.01
2022-11-11T12:09:09.245Z,68.89
2022-11-11T12:12:03.088Z,70.35
2022-11-11T12:15:11.668Z,69.71
2022-11-11T12:18:22.271Z,68.80
2022-11-11T12:21:19.015Z,69.11
2022-11-11T12:24:23.105Z,70.18
2022-11-11T12:27:36.255Z,69.64
2022-11-11T12:30:28.592Z,68.10
2022-11-11T12:33:20.144Z,67.71
2022-11-11T12:36:11.052Z,69.11
2022-11-11T12:39:02.797Z,69.54
2022-11-11T12:41:57.464Z,70.95
2022-11-11T12:45:09.268Z,71.43
2022-11-11T12:48:03.899Z,70.27
2022-11-11T12:51:12.102Z,71.66
2022-11-11T12:54:24.711Z,72.87
2022-11-11T12:57:16.060Z,71.10
2022-11-11T13:00:13.739Z,71.50
2022-11-11T13:03:10.438Z,72.87
2022-11-11T13:05:55.989Z,73.38
2022-11-11T13:09:09.337Z,73.72
2022-11-11T13:12:03.757Z,75.05
2022-11-11T13:14:57.088Z,75.42
2022-11-11T13:17:42.050Z,72.95
2022-11-11T13:20:36.606Z,72.04
2022-11-11T13:23:25.576Z,72.57
2022-11-11T13:26:34.269Z,72.99
2022-11-11T13:31:39.971Z,74.63
2022-11-11T13:34:25.881Z,74.51
2022-11-11T13:37:28.314Z,74.74
2022-11-11T13:40:38.074Z,73.13
2022-11-11T13:43:35.894Z,71.72
2022-11-11T13:46:44.495Z,72.52
2022-11-11T13:49:35.438Z,72.31
2022-11-11T13:52:28.162Z,73.56
2022-11-11T13:55:44.181Z,73.68
2022-11-11T13:58:35.167Z,74.00
2022-11-11T14:01:21.018Z,71.90
2022-11-11T14:04:08.309Z,70.85
2022-11-11T14:06:54.229Z,71.03
2022-11-11T14:09:57.493Z,71.52
2022-11-11T14:12:46.931Z,72.79
2022-11-11T14:15:37.091Z,73.45
2022-11-11T14:18:26.037Z,74.34
2022-11-11T14:21:11.693Z,72.84
2022-11-11T14:23:57.276Z,71.36
2022-11-11T14:26:43.081Z,71.55
2022-11-11T14:29:35.207Z,71.50
2022-11-11T14:32:45.539Z,72.37
2022-11-11T14:35:48.246Z,73.83
2022-11-11T14:38:43.139Z,74.95
2022-11-11T14:41:41.216Z,76.04
2022-11-11T14:44:26.835Z,74.80
2022-11-11T14:47:12.586Z,73.02
2022-11-11T14:49:59.857Z,72.66
2022-11-11T14:52:45.897Z,73.27
2022-11-11T14:55:33.917Z,73.89
2022-11-11T14:58:21.547Z,74.67
2022-11-11T15:01:07.418Z,75.08
2022-11-11T15:03:53.867Z,75.95
2022-11-11T15:06:44.291Z,75.53
2022-11-11T15:10:00.883Z,73.36
2022-11-11T15:13:05.697Z,72.81
2022-11-11T15:15:54.499Z,73.53
2022-11-11T15:19:03.171Z,73.89
2022-11-11T15:22:04.758Z,74.31
2022-11-11T15:25:11.412Z,74.86
2022-11-11T15:28:02.250Z,75.19
2022-11-11T15:31:28.221Z,75.11
2022-11-11T15:34:32.669Z,73.18
2022-11-11T15:37:19.404Z,73.01
2022-11-11T15:40:07.791Z,73.78
2022-11-11T15:42:53.299Z,74.61
2022-11-11T15:45:38.986Z,75.02
2022-11-11T15:48:27.757Z,76.02
2022-11-11T15:51:22.734Z,76.19
2022-11-11T15:54:10.430Z,75.95
2022-11-11T15:56:56.090Z,73.83
2022-11-11T15:59:42.067Z,73.54
2022-11-11T16:02:34.887Z,74.25
2022-11-11T16:05:24.892Z,74.95
2022-11-11T16:08:18.022Z,75.78
2022-11-11T16:11:03.937Z,76.77
2022-11-11T16:13:56.606Z,77.32
2022-11-11T16:16:43.836Z,76.60
2022-11-11T16:19:35.637Z,75.14
2022-11-11T16:22:26.338Z,74.44
2022-11-11T16:25:20.917Z,74.66
2022-11-11T16:28:06.411Z,74.88
2022-11-11T16:30:52.241Z,75.64
2022-11-11T16:33:37.875Z,76.56
2022-11-11T16:36:23.569Z,77.49
2022-11-11T16:39:22.084Z,77.22
2022-11-11T16:42:25.048Z,75.49
2022-11-11T16:45:21.573Z,75.36
2022-11-11T16:48:31.526Z,76.08
2022-11-11T16:51:18.948Z,76.62
2022-11-11T16:54:10.356Z,77.18
2022-11-11T16:56:57.484Z,77.63
2022-11-11T16:59:45.483Z,77.07
2022-11-11T17:02:31.309Z,76.82
2022-11-11T17:05:17.099Z,77.31
2022-11-11T17:08:28.080Z,77.15
2022-11-11T17:11:36.084Z,77.51
2022-11-11T17:14:21.987Z,78.13
2022-11-11T17:17:11.472Z,77.54
2022-11-11T17:19:57.920Z,76.02
2022-11-11T17:22:55.585Z,75.52
2022-11-11T17:25:41.305Z,75.65
2022-11-11T17:28:30.376Z,76.50
2022-11-11T17:31:16.666Z,77.24
2022-11-11T17:34:20.653Z,78.20
2022-11-11T17:37:06.221Z,79.15
2022-11-11T17:39:52.247Z,78.59
2022-11-11T17:42:38.035Z,76.82
2022-11-11T17:45:23.816Z,76.14
2022-11-11T17:48:10.365Z,76.44
2022-11-11T17:50:56.035Z,76.78
2022-11-11T17:53:41.695Z,77.18
2022-11-11T17:56:27.278Z,77.87
2022-11-11T17:59:12.956Z,77.48
2022-11-11T18:01:59.659Z,76.16
2022-11-11T18:04:45.360Z,75.86
2022-11-11T18:07:31.069Z,75.86
2022-11-11T18:10:16.865Z,76.56
2022-11-11T18:13:02.403Z,77.56
2022-11-11T18:15:48.290Z,77.52
2022-11-11T18:18:34.382Z,76.98
2022-11-11T18:21:21.647Z,76.04
2022-11-11T18:24:08.793Z,75.86
2022-11-11T18:26:57.068Z,76.27
2022-11-11T18:29:44.717Z,76.70
2022-11-11T18:32:30.798Z,77.76
2022-11-11T18:35:18.933Z,77.88
2022-11-11T18:38:04.615Z,76.39
2022-11-11T18:40:50.212Z,76.75
2022-11-11T18:43:44.795Z,77.07
2022-11-11T18:46:30.916Z,77.40
2022-11-11T18:49:16.535Z,79.06
2022-11-11T18:52:02.357Z,78.99
2022-11-11T18:54:47.937Z,77.13
2022-11-11T18:57:33.534Z,75.56
2022-11-11T19:00:20.342Z,76.22
2022-11-11T19:03:06.002Z,77.58
2022-11-11T19:05:51.695Z,79.17
2022-11-11T19:08:37.897Z,79.03
2022-11-11T19:11:23.685Z,77.77
2022-11-11T19:14:10.080Z,77.96
2022-11-11T19:16:55.914Z,79.40
2022-11-11T19:19:41.660Z,81.04
2022-11-11T19:22:27.541Z,81.73
2022-11-11T19:25:13.326Z,79.87
2022-11-11T19:27:59.256Z,78.70
2022-11-11T19:30:44.725Z,79.21
2022-11-11T19:33:33.251Z,80.18
